Flight Track Log - Related Links

Times and Time Zones

All times are in EDT time to prevent confusion due to time zone crossing. See the AWE131 flight status page for this flight to view local times or setup timezone preferences in your user account.

Time Position Orientation Groundspeed Altitude Reporting Facility
EDT Latitude Longitude Course Direction KTS MPH feet Rate Location/Type
Thu 11:21:16 PM 33.4333 -112.0167 273° West 107 123 1,900  Level Phoenix TRACON
Thu 11:21:52 PM 33.4167 -112.0500 239° Southwest 169 194 2,900 1,979 Climbing Phoenix TRACON
Thu 11:22:53 PM 33.4000 -112.1167 253° West 222 255 5,100 2,479 Climbing Phoenix TRACON
Thu 11:23:00 PM 33.4333 -112.3465 270° West  Level FlightAware Approximate
Thu 11:23:53 PM 33.3833 -112.2167 259° West 284 327 7,900  Level Phoenix TRACON
Thu 11:24:00 PM 33.4366 -112.4619 273° West  Level FlightAware Approximate
Thu 11:24:53 PM 33.3833 -112.3000 270° West 292 336 10,900  Level Phoenix TRACON
Thu 11:25:00 PM 33.4413 -112.5773 273° West  Level FlightAware Approximate
Thu 11:25:53 PM 33.4000 -112.4167 280° West 353 406 12,900  Level Phoenix TRACON
Thu 11:26:00 PM 33.4458 -112.6926 273° West  Level FlightAware Approximate
Thu 11:26:08 PM 33.3953 -112.4328 251° West 339 390 13,500  Level Albuquerque Center
Thu 11:27:10 PM 33.4128 -112.5494 280° West 353 406 16,100 2,419 Climbing Albuquerque Center
Thu 11:28:12 PM 33.4306 -112.6719 280° West 364 419 18,500 2,293 Climbing Albuquerque Center
Thu 11:29:13 PM 33.4492 -112.7958 280° West 374 430 20,800 2,049 Climbing Albuquerque Center
Thu 11:30:15 PM 33.4717 -112.9206 282° West 380 437 22,700 1,951 Climbing Albuquerque Center
Thu 11:31:16 PM 33.5028 -113.0758 284° West 391 450 24,800 1,756 Climbing Albuquerque Center
Thu 11:32:18 PM 33.5272 -113.2069 283° West 397 457 26,300 1,463 Climbing Albuquerque Center
Thu 11:33:19 PM 33.5528 -113.3425 283° West 406 467 27,800 1,415 Climbing Albuquerque Center
Thu 11:34:21 PM 33.5786 -113.4764 283° West 413 475 29,200 1,790 Climbing Albuquerque Center
Thu 11:35:23 PM 33.6033 -113.6114 282° West 416 479 31,500 1,366 Climbing Albuquerque Center
Thu 11:36:24 PM 33.6289 -113.7428 283° West 406 467 32,000 244 Climbing Albuquerque Center
Thu 11:37:26 PM 33.6517 -113.8728 282° West 400 460 32,000  Level Albuquerque Center
Thu 11:38:27 PM 33.6767 -114.0053 283° West 405 466 32,000  Level Albuquerque Center
Thu 11:39:29 PM 33.7003 -114.1369 282° West 404 465 32,000  Level Albuquerque Center
Thu 11:40:30 PM 33.7278 -114.2922 282° West 407 468 32,000 -49 Level Albuquerque Center
Thu 11:41:32 PM 33.7517 -114.4244 282° West 407 468 31,900 -49 Descending Albuquerque Center
Thu 11:42:33 PM 33.7747 -114.5556 282° West 404 465 31,900 47 Level Albuquerque Center
Thu 11:43:40 PM 33.7833 -114.7053 274° West 410 472 32,000  Climbing Los Angeles Center
Thu 11:44:42 PM 33.7922 -114.8408 275° West 409 471 31,900  Descending Los Angeles Center
Thu 11:45:44 PM 33.8014 -115.0025 274° West 406 467 32,000 49 Climbing Los Angeles Center
Thu 11:46:45 PM 33.8081 -115.1375 273° West 406 467 32,000 -293 Level Los Angeles Center
Thu 11:47:47 PM 33.8144 -115.2708 273° West 403 464 31,400 -726 Descending Los Angeles Center
Thu 11:48:49 PM 33.8214 -115.4039 274° West 400 460 30,500 -927 Descending Los Angeles Center
Thu 11:49:50 PM 33.8281 -115.5375 273° West 401 461 29,500 -976 Descending Los Angeles Center
Thu 11:50:52 PM 33.8344 -115.6686 273° West 396 456 28,500 -968 Descending Los Angeles Center
Thu 11:51:54 PM 33.8403 -115.7989 273° West 393 452 27,500 -978 Descending Los Angeles Center
Thu 11:53:07 PM 33.8478 -115.9544 273° West 390 449 26,300 -1,067 Descending Los Angeles Center
Thu 11:54:09 PM 33.8544 -116.1067 273° West 382 440 25,100 -1,065 Descending Los Angeles Center
Thu 11:55:11 PM 33.8603 -116.2303 273° West 373 429 24,100 -581 Descending Los Angeles Center
Thu 11:56:13 PM 33.8664 -116.3528 273° West 371 427 23,900 -1,366 Descending Los Angeles Center
Thu 11:57:14 PM 33.8708 -116.4750 273° West 369 425 21,300 -2,780 Descending Los Angeles Center
Thu 11:58:16 PM 33.8778 -116.5928 274° West 358 412 18,200 -3,048 Descending Los Angeles Center
Thu 11:59:18 PM 33.8842 -116.7306 273° West 347 399 15,000 -2,177 Descending Los Angeles Center
Fri 12:00:20 AM 33.8889 -116.8406 273° West 334 384 13,700 -1,645 Descending Los Angeles Center
Fri 12:01:22 AM 33.8742 -116.9517 261° West 337 388 11,600 -1,463 Descending Los Angeles Center
Fri 12:02:23 AM 33.8581 -117.0569 260° West 323 372 10,700 -1,171 Descending Los Angeles Center
Fri 12:03:25 AM 33.8431 -117.1625 260° West 298 343 9,200 -1,210 Descending Los Angeles Center
Fri 12:04:27 AM 33.8286 -117.2617 260° West 300 345 8,200 -585 Descending Los Angeles Center
Fri 12:05:28 AM 33.8142 -117.3606 260° West 301 346 8,000 -98 Descending Los Angeles Center
Fri 12:06:30 AM 33.7992 -117.4594 260° West 301 346 8,000  Level Los Angeles Center
Fri 12:07:31 AM 33.7858 -117.5556 261° West 294 338 8,000  Level Los Angeles Center
Fri 12:08:33 AM 33.7619 -117.6447 252° West 284 327 8,000 -566 Level Los Angeles Center
Fri 12:09:17 AM 33.7333 -117.7167 244° Southwest 279 321 7,000 -1,269 Descending Southern California TRACON
Fri 12:10:17 AM 33.7000 -117.8000 244° Southwest 270 311 5,800 -1,150 Descending Southern California TRACON
Fri 12:11:17 AM 33.6667 -117.8833 244° Southwest 254 292 4,700 -900 Descending Southern California TRACON
Fri 12:12:17 AM 33.6833 -117.9500 287° West 222 255 4,000 -800 Descending Southern California TRACON
Fri 12:13:17 AM 33.7000 -118.0167 287° West 199 229 3,100 -950 Descending Southern California TRACON
Fri 12:14:17 AM 33.7333 -118.0500 320° Northwest 167 192 2,100 -850 Descending Southern California TRACON
Fri 12:15:17 AM 33.7667 -118.0833 320° Northwest 137 158 1,400 -700 Descending Southern California TRACON
Fri 12:16:17 AM 33.7833 -118.1167 301° West 118 136 700 -600 Descending Southern California TRACON
Fri 12:17:17 AM 33.8167 -118.1500 320° Northwest 123 142 200 -500 Descending Southern California TRACON
Fri 12:19:00 AM 33.8177 -118.1517 292° West  Level Estimated
Fri 12:26:00 AM 33.8167 -118.1500 292° West  Level FlightAware Approximate

Login

Don't have an account? Register now (free) for customized features, flight alerts, and more!